createdAt,value
2022-10-05T00:04:29.406Z,13.25
2022-10-05T00:09:33.929Z,12.62
2022-10-05T00:14:36.957Z,12.12
2022-10-05T00:19:40.046Z,11.72
2022-10-05T00:24:45.753Z,12.47
2022-10-05T00:29:51.507Z,15.13
2022-10-05T00:34:54.931Z,16.17
2022-10-05T00:39:57.781Z,14.77
2022-10-05T00:45:24.847Z,13.59
2022-10-05T00:50:57.680Z,12.84
2022-10-05T00:56:20.241Z,12.27
2022-10-05T01:02:13.151Z,11.83
2022-10-05T01:07:33.847Z,12.88
2022-10-05T01:13:23.668Z,15.49
2022-10-05T01:18:56.252Z,15.59
2022-10-05T01:24:43.597Z,13.90
2022-10-05T01:30:13.593Z,12.92
2022-10-05T01:35:41.194Z,12.32
2022-10-05T01:41:02.453Z,11.85
2022-10-05T01:46:14.332Z,12.68
2022-10-05T01:51:43.715Z,15.37
2022-10-05T01:57:25.509Z,15.73
2022-10-05T02:02:31.873Z,13.97
2022-10-05T02:07:45.721Z,13.05
2022-10-05T02:12:55.527Z,12.43
2022-10-05T02:18:07.477Z,11.97
2022-10-05T02:23:21.111Z,12.62
2022-10-05T02:28:51.871Z,15.24
2022-10-05T02:34:40.679Z,15.66
2022-10-05T02:40:22.382Z,13.84
2022-10-05T02:45:40.521Z,12.85
2022-10-05T02:51:15.712Z,12.25
2022-10-05T02:56:37.198Z,11.72
2022-10-05T03:01:48.785Z,12.56
2022-10-05T03:07:14.411Z,15.18
2022-10-05T03:12:48.872Z,16.16
2022-10-05T03:18:30.981Z,14.50
2022-10-05T03:23:56.769Z,13.24
2022-10-05T03:29:19.905Z,12.51
2022-10-05T03:34:50.931Z,11.99
2022-10-05T03:40:10.215Z,12.68
2022-10-05T03:45:24.069Z,15.26
2022-10-05T03:51:07.092Z,15.72
2022-10-05T03:56:38.882Z,13.94
2022-10-05T04:02:02.624Z,12.93
2022-10-05T04:07:11.162Z,12.29
2022-10-05T04:12:33.898Z,11.82
2022-10-05T04:17:46.204Z,12.57
2022-10-05T04:23:11.094Z,15.17
2022-10-05T04:28:32.213Z,15.97
2022-10-05T04:33:35.347Z,14.33
2022-10-05T04:38:52.532Z,13.28
2022-10-05T04:44:22.858Z,12.56
2022-10-05T04:50:00.255Z,11.96
2022-10-05T04:55:08.843Z,12.75
2022-10-05T05:00:31.169Z,15.19
2022-10-05T05:06:17.198Z,15.62
2022-10-05T05:11:42.514Z,13.78
2022-10-05T05:16:58.071Z,12.74
2022-10-05T05:22:36.913Z,12.05
2022-10-05T05:28:03.343Z,12.83
2022-10-05T05:33:34.440Z,15.41
2022-10-05T05:38:41.356Z,16.01
2022-10-05T05:44:23.154Z,14.34
2022-10-05T05:49:44.800Z,13.14
2022-10-05T05:55:17.185Z,12.45
2022-10-05T06:00:38.927Z,13.16
2022-10-05T06:05:58.453Z,15.65
2022-10-05T06:11:37.503Z,16.32
2022-10-05T06:16:58.573Z,14.63
2022-10-05T06:22:39.024Z,13.60
2022-10-05T06:28:12.131Z,12.95
2022-10-05T06:33:33.942Z,13.64
2022-10-05T06:39:26.454Z,16.09
2022-10-05T06:44:49.097Z,16.25
2022-10-05T06:50:38.290Z,14.54
2022-10-05T06:56:08.697Z,13.55
2022-10-05T07:01:20.236Z,13.02
2022-10-05T07:06:49.908Z,13.74
2022-10-05T07:12:08.041Z,16.31
2022-10-05T07:17:44.326Z,16.88
2022-10-05T07:23:19.869Z,15.19
2022-10-05T07:28:56.838Z,14.19
2022-10-05T07:34:29.949Z,13.63
2022-10-05T07:40:09.813Z,14.40
2022-10-05T07:45:46.110Z,16.96
2022-10-05T07:51:04.157Z,17.02
2022-10-05T07:56:29.749Z,15.46
2022-10-05T08:01:36.891Z,14.57
2022-10-05T08:06:54.406Z,14.51
2022-10-05T08:12:36.389Z,16.89
2022-10-05T08:18:02.993Z,17.48
2022-10-05T08:23:42.319Z,15.82
2022-10-05T08:29:19.396Z,14.83
2022-10-05T08:34:37.118Z,14.51
2022-10-05T08:39:49.437Z,16.86
2022-10-05T08:45:16.162Z,18.46
2022-10-05T08:50:48.640Z,17.66
2022-10-05T08:56:30.703Z,16.25
2022-10-05T09:02:27.095Z,15.46
2022-10-05T09:08:20.789Z,14.89
2022-10-05T09:14:01.194Z,14.56
2022-10-05T09:19:29.182Z,16.64
2022-10-05T09:25:12.097Z,18.63
2022-10-05T09:30:20.708Z,17.40
2022-10-05T09:36:09.847Z,16.38
2022-10-05T09:41:41.331Z,15.74
2022-10-05T09:47:02.230Z,15.33
2022-10-05T09:52:44.899Z,16.17
2022-10-05T09:58:23.308Z,18.74
2022-10-05T10:04:13.025Z,17.80
2022-10-05T10:09:36.590Z,16.56
2022-10-05T10:15:33.308Z,15.94
2022-10-05T10:20:45.149Z,15.49
2022-10-05T10:26:13.077Z,16.37
2022-10-05T10:31:54.727Z,18.97
2022-10-05T10:37:19.500Z,18.34
2022-10-05T10:42:53.885Z,17.09
2022-10-05T10:48:31.541Z,16.41
2022-10-05T10:54:18.414Z,15.90
2022-10-05T11:00:23.402Z,15.56
2022-10-05T11:06:22.363Z,16.88
2022-10-05T11:11:37.170Z,19.42
2022-10-05T11:17:23.544Z,18.56
2022-10-05T11:23:36.613Z,17.27
2022-10-05T11:29:26.898Z,16.55
2022-10-05T11:34:51.145Z,16.15
2022-10-05T11:40:18.121Z,15.90
2022-10-05T11:45:36.425Z,17.35
2022-10-05T11:51:09.042Z,19.68
2022-10-05T12:01:57.895Z,18.10
2022-10-05T12:07:44.242Z,17.31
2022-10-05T12:13:06.196Z,16.78
2022-10-05T12:18:18.545Z,16.45
2022-10-05T12:23:42.467Z,16.23
2022-10-05T12:29:08.338Z,17.23
2022-10-05T12:34:48.736Z,19.88
2022-10-05T12:40:01.617Z,19.59
2022-10-05T12:45:28.459Z,18.32
2022-10-05T12:50:41.147Z,17.60
2022-10-05T12:56:05.015Z,17.19
2022-10-05T13:01:34.200Z,16.87
2022-10-05T13:07:12.248Z,16.61
2022-10-05T13:12:36.119Z,17.72
2022-10-05T13:18:01.968Z,19.89
2022-10-05T13:23:25.349Z,18.75
2022-10-05T13:28:38.195Z,17.77
2022-10-05T13:34:25.930Z,17.22
2022-10-05T13:40:05.568Z,16.79
2022-10-05T13:45:23.261Z,16.49
2022-10-05T13:50:38.623Z,17.41
2022-10-05T13:55:57.121Z,19.94
2022-10-05T14:01:14.065Z,19.67
2022-10-05T14:06:30.297Z,18.34
2022-10-05T14:11:36.272Z,17.63
2022-10-05T14:16:56.108Z,17.15
2022-10-05T14:22:03.201Z,16.78
2022-10-05T14:27:31.370Z,16.48
2022-10-05T14:32:55.386Z,17.50
2022-10-05T14:38:02.506Z,20.02
2022-10-05T14:43:14.426Z,20.30
2022-10-05T14:48:17.316Z,18.77
2022-10-05T14:53:24.994Z,17.83
2022-10-05T14:59:04.494Z,17.21
2022-10-05T15:04:45.443Z,17.68
2022-10-05T15:10:27.037Z,20.11
2022-10-05T15:15:49.916Z,19.65
2022-10-05T15:22:07.566Z,18.18
2022-10-05T15:27:54.147Z,17.25
2022-10-05T15:33:09.088Z,16.67
2022-10-05T15:38:21.122Z,17.50
2022-10-05T15:43:25.039Z,19.79
2022-10-05T15:48:48.605Z,19.42
2022-10-05T15:55:03.366Z,17.92
2022-10-05T16:00:22.946Z,16.98
2022-10-05T16:06:02.683Z,16.44
2022-10-05T16:11:14.642Z,15.98
2022-10-05T16:16:36.809Z,16.71
2022-10-05T16:22:27.845Z,19.16
2022-10-05T16:27:45.437Z,20.28
2022-10-05T16:33:10.588Z,19.07
2022-10-05T16:38:35.042Z,17.61
2022-10-05T16:44:21.656Z,16.75
2022-10-05T16:50:04.363Z,17.69
2022-10-05T16:55:25.618Z,19.71
2022-10-05T17:00:47.236Z,19.58
2022-10-05T17:06:06.710Z,17.89
2022-10-05T17:11:52.563Z,16.91
2022-10-05T17:17:44.250Z,16.22
2022-10-05T17:23:16.017Z,17.81
2022-10-05T17:28:18.771Z,19.69
2022-10-05T17:33:33.314Z,19.51
2022-10-05T17:39:18.510Z,17.85
2022-10-05T17:44:24.969Z,16.84
2022-10-05T17:50:18.318Z,16.32
2022-10-05T17:55:38.632Z,18.32
2022-10-05T18:01:03.041Z,19.72
2022-10-05T18:06:28.606Z,19.57
2022-10-05T18:11:33.413Z,17.79
2022-10-05T18:17:04.430Z,16.76
2022-10-05T18:22:28.264Z,16.06
2022-10-05T18:28:12.373Z,15.56
2022-10-05T18:33:43.465Z,16.41
2022-10-05T18:39:08.536Z,18.86
2022-10-05T18:44:14.154Z,19.07
2022-10-05T18:49:32.001Z,17.48
2022-10-05T18:54:56.922Z,16.47
2022-10-05T19:00:10.878Z,15.77
2022-10-05T19:05:48.730Z,15.21
2022-10-05T19:11:01.034Z,15.92
2022-10-05T19:16:47.266Z,18.28
2022-10-05T19:22:33.224Z,19.08
2022-10-05T19:28:10.611Z,17.34
2022-10-05T19:33:37.722Z,16.18
2022-10-05T19:39:03.601Z,15.43
2022-10-05T19:44:54.062Z,14.84
2022-10-05T19:50:02.285Z,15.76
2022-10-05T19:55:23.400Z,18.05
2022-10-05T20:00:35.529Z,18.58
2022-10-05T20:05:40.014Z,16.97
2022-10-05T20:10:44.744Z,15.91
2022-10-05T20:16:35.532Z,15.23
2022-10-05T20:21:41.480Z,14.66
2022-10-05T20:27:05.005Z,15.28
2022-10-05T20:32:15.288Z,17.79
2022-10-05T20:37:20.169Z,18.34
2022-10-05T20:42:23.971Z,16.79
2022-10-05T20:47:27.055Z,15.78
2022-10-05T20:52:31.445Z,15.14
2022-10-05T20:57:34.770Z,14.66
2022-10-05T21:02:39.431Z,14.33
2022-10-05T21:07:42.378Z,16.10
2022-10-05T21:12:45.227Z,18.17
2022-10-05T21:17:48.092Z,18.45
2022-10-05T21:22:51.105Z,16.95
2022-10-05T21:27:54.361Z,16.02
2022-10-05T21:32:57.330Z,15.40
2022-10-05T21:38:00.223Z,14.94
2022-10-05T21:43:03.365Z,14.55
2022-10-05T21:48:06.624Z,15.02
2022-10-05T21:53:14.783Z,17.53
2022-10-05T21:58:21.487Z,18.44
2022-10-05T22:03:24.742Z,17.02
2022-10-05T22:08:30.696Z,16.01
2022-10-05T22:13:43.049Z,15.38
2022-10-05T22:18:46.704Z,14.93
2022-10-05T22:23:49.805Z,14.56
2022-10-05T22:28:55.619Z,14.27
2022-10-05T22:33:58.612Z,15.03
2022-10-05T22:39:01.623Z,17.56
2022-10-05T22:44:04.967Z,18.29
2022-10-05T22:49:07.909Z,16.85
2022-10-05T22:54:10.809Z,15.88
2022-10-05T22:59:13.815Z,15.26
2022-10-05T23:04:16.698Z,14.78
2022-10-05T23:09:19.553Z,14.39
2022-10-05T23:14:23.190Z,14.98
2022-10-05T23:19:26.096Z,17.45
2022-10-05T23:24:29.024Z,18.38
2022-10-05T23:29:31.918Z,16.97
2022-10-05T23:34:34.995Z,15.89
2022-10-05T23:39:37.856Z,15.22
2022-10-05T23:44:40.770Z,14.72
2022-10-05T23:49:43.701Z,14.30
2022-10-05T23:54:46.567Z,13.96
2022-10-05T23:59:52.352Z,14.66
